sensor_id;sensor_type;location;lat;lon;timestamp;temperature;humidity
7155;DHT22;3619;53.784;10.440;2024-02-15T00:01:01;10.90;99.90
7155;DHT22;3619;53.784;10.440;2024-02-15T00:03:32;10.80;99.90
7155;DHT22;3619;53.784;10.440;2024-02-15T00:06:01;10.80;99.90
7155;DHT22;3619;53.784;10.440;2024-02-15T00:08:28;10.80;99.90
7155;DHT22;3619;53.784;10.440;2024-02-15T00:10:55;10.80;99.90
7155;DHT22;3619;53.784;10.440;2024-02-15T00:13:22;10.80;99.90
7155;DHT22;3619;53.784;10.440;2024-02-15T00:15:49;10.80;99.90
7155;DHT22;3619;53.784;10.440;2024-02-15T00:18:16;10.80;99.90
7155;DHT22;3619;53.784;10.440;2024-02-15T00:20:42;10.90;99.90
7155;DHT22;3619;53.784;10.440;2024-02-15T00:23:10;10.90;99.90
7155;DHT22;3619;53.784;10.440;2024-02-15T00:25:37;10.90;99.90
7155;DHT22;3619;53.784;10.440;2024-02-15T00:28:05;10.80;99.90
7155;DHT22;3619;53.784;10.440;2024-02-15T00:30:32;10.90;99.90
7155;DHT22;3619;53.784;10.440;2024-02-15T00:32:59;10.80;99.90
7155;DHT22;3619;53.784;10.440;2024-02-15T00:35:26;10.90;99.90
7155;DHT22;3619;53.784;10.440;2024-02-15T00:37:53;10.80;99.90
7155;DHT22;3619;53.784;10.440;2024-02-15T00:40:21;10.80;99.90
7155;DHT22;3619;53.784;10.440;2024-02-15T00:42:47;10.80;99.90
7155;DHT22;3619;53.784;10.440;2024-02-15T00:45:14;10.90;99.90
7155;DHT22;3619;53.784;10.440;2024-02-15T00:47:41;10.80;99.90
7155;DHT22;3619;53.784;10.440;2024-02-15T00:50:09;10.80;99.90
7155;DHT22;3619;53.784;10.440;2024-02-15T00:52:39;10.80;99.90
7155;DHT22;3619;53.784;10.440;2024-02-15T00:55:06;10.90;99.90
7155;DHT22;3619;53.784;10.440;2024-02-15T00:57:34;10.80;99.90
7155;DHT22;3619;53.784;10.440;2024-02-15T01:00:01;10.80;99.90
7155;DHT22;3619;53.784;10.440;2024-02-15T01:02:29;10.90;99.90
7155;DHT22;3619;53.784;10.440;2024-02-15T01:04:56;10.90;99.90
7155;DHT22;3619;53.784;10.440;2024-02-15T01:07:26;10.80;99.90
7155;DHT22;3619;53.784;10.440;2024-02-15T01:09:53;10.80;99.90
7155;DHT22;3619;53.784;10.440;2024-02-15T01:12:19;10.90;99.90
7155;DHT22;3619;53.784;10.440;2024-02-15T01:14:48;10.90;99.90
7155;DHT22;3619;53.784;10.440;2024-02-15T01:17:15;10.90;99.90
7155;DHT22;3619;53.784;10.440;2024-02-15T01:19:42;10.90;99.90
7155;DHT22;3619;53.784;10.440;2024-02-15T01:22:09;11.00;99.90
7155;DHT22;3619;53.784;10.440;2024-02-15T01:24:35;11.00;99.90
7155;DHT22;3619;53.784;10.440;2024-02-15T01:27:02;11.00;99.90
7155;DHT22;3619;53.784;10.440;2024-02-15T01:29:29;11.00;99.90
7155;DHT22;3619;53.784;10.440;2024-02-15T01:31:57;11.10;99.90
7155;DHT22;3619;53.784;10.440;2024-02-15T01:34:24;11.10;99.90
7155;DHT22;3619;53.784;10.440;2024-02-15T01:36:51;11.00;99.90
7155;DHT22;3619;53.784;10.440;2024-02-15T01:39:18;11.10;99.90
7155;DHT22;3619;53.784;10.440;2024-02-15T01:41:48;11.20;99.90
7155;DHT22;3619;53.784;10.440;2024-02-15T01:44:16;11.20;99.90
7155;DHT22;3619;53.784;10.440;2024-02-15T01:46:43;11.20;99.90
7155;DHT22;3619;53.784;10.440;2024-02-15T01:49:16;11.30;99.90
7155;DHT22;3619;53.784;10.440;2024-02-15T01:51:43;11.20;99.90
7155;DHT22;3619;53.784;10.440;2024-02-15T01:54:11;11.30;99.90
7155;DHT22;3619;53.784;10.440;2024-02-15T01:56:42;11.30;99.90
7155;DHT22;3619;53.784;10.440;2024-02-15T01:59:10;11.30;99.90
7155;DHT22;3619;53.784;10.440;2024-02-15T02:01:38;11.30;99.90
7155;DHT22;3619;53.784;10.440;2024-02-15T02:04:06;11.30;99.90
7155;DHT22;3619;53.784;10.440;2024-02-15T02:06:34;11.40;99.90
7155;DHT22;3619;53.784;10.440;2024-02-15T02:09:03;11.40;99.90
7155;DHT22;3619;53.784;10.440;2024-02-15T02:11:30;11.40;99.90
7155;DHT22;3619;53.784;10.440;2024-02-15T02:13:57;11.40;99.90
7155;DHT22;3619;53.784;10.440;2024-02-15T02:16:26;11.40;99.90
7155;DHT22;3619;53.784;10.440;2024-02-15T02:18:54;11.40;99.90
7155;DHT22;3619;53.784;10.440;2024-02-15T02:21:21;11.40;99.90
7155;DHT22;3619;53.784;10.440;2024-02-15T02:23:52;11.40;99.90
7155;DHT22;3619;53.784;10.440;2024-02-15T02:26:20;11.50;99.90
7155;DHT22;3619;53.784;10.440;2024-02-15T02:28:47;11.50;99.90
7155;DHT22;3619;53.784;10.440;2024-02-15T02:31:14;11.50;99.90
7155;DHT22;3619;53.784;10.440;2024-02-15T02:33:42;11.50;99.90
7155;DHT22;3619;53.784;10.440;2024-02-15T02:36:13;11.50;99.90
7155;DHT22;3619;53.784;10.440;2024-02-15T02:38:40;11.40;99.90
7155;DHT22;3619;53.784;10.440;2024-02-15T02:41:10;11.40;99.90
7155;DHT22;3619;53.784;10.440;2024-02-15T02:43:39;11.40;99.90
7155;DHT22;3619;53.784;10.440;2024-02-15T02:46:06;11.40;99.90
7155;DHT22;3619;53.784;10.440;2024-02-15T02:48:33;11.40;99.90
7155;DHT22;3619;53.784;10.440;2024-02-15T02:51:00;11.40;99.90
7155;DHT22;3619;53.784;10.440;2024-02-15T02:53:26;11.40;99.90
7155;DHT22;3619;53.784;10.440;2024-02-15T02:55:53;11.40;99.90
7155;DHT22;3619;53.784;10.440;2024-02-15T02:58:20;11.40;99.90
7155;DHT22;3619;53.784;10.440;2024-02-15T03:00:49;11.40;99.90
7155;DHT22;3619;53.784;10.440;2024-02-15T03:03:17;11.40;99.90
7155;DHT22;3619;53.784;10.440;2024-02-15T03:05:44;11.40;99.90
7155;DHT22;3619;53.784;10.440;2024-02-15T03:08:11;11.40;99.90
7155;DHT22;3619;53.784;10.440;2024-02-15T03:10:38;11.40;99.90
7155;DHT22;3619;53.784;10.440;2024-02-15T03:13:06;11.40;99.90
7155;DHT22;3619;53.784;10.440;2024-02-15T03:15:33;11.40;99.90
7155;DHT22;3619;53.784;10.440;2024-02-15T03:18:01;11.30;99.90
7155;DHT22;3619;53.784;10.440;2024-02-15T03:20:32;11.40;99.90
7155;DHT22;3619;53.784;10.440;2024-02-15T03:22:59;11.40;99.90
7155;DHT22;3619;53.784;10.440;2024-02-15T03:25:26;11.40;99.90
7155;DHT22;3619;53.784;10.440;2024-02-15T03:27:54;11.40;99.90
7155;DHT22;3619;53.784;10.440;2024-02-15T03:30:22;11.40;99.90
7155;DHT22;3619;53.784;10.440;2024-02-15T03:32:49;11.40;99.90
7155;DHT22;3619;53.784;10.440;2024-02-15T03:35:18;11.40;99.90
7155;DHT22;3619;53.784;10.440;2024-02-15T03:37:45;11.40;99.90
7155;DHT22;3619;53.784;10.440;2024-02-15T03:40:11;11.40;99.90
7155;DHT22;3619;53.784;10.440;2024-02-15T03:42:38;11.40;99.90
7155;DHT22;3619;53.784;10.440;2024-02-15T03:45:05;11.50;99.90
7155;DHT22;3619;53.784;10.440;2024-02-15T03:47:32;11.40;99.90
7155;DHT22;3619;53.784;10.440;2024-02-15T03:49:59;11.40;99.90
7155;DHT22;3619;53.784;10.440;2024-02-15T03:52:27;11.50;99.90
7155;DHT22;3619;53.784;10.440;2024-02-15T03:54:55;11.40;99.90
7155;DHT22;3619;53.784;10.440;2024-02-15T03:57:22;11.50;99.90
7155;DHT22;3619;53.784;10.440;2024-02-15T03:59:49;11.50;99.90
7155;DHT22;3619;53.784;10.440;2024-02-15T04:02:18;11.50;99.90
7155;DHT22;3619;53.784;10.440;2024-02-15T04:04:45;11.50;99.90
7155;DHT22;3619;53.784;10.440;2024-02-15T04:07:12;11.50;99.90
7155;DHT22;3619;53.784;10.440;2024-02-15T04:09:41;11.50;99.90
7155;DHT22;3619;53.784;10.440;2024-02-15T04:12:07;11.50;99.90
7155;DHT22;3619;53.784;10.440;2024-02-15T04:14:34;11.50;99.90
7155;DHT22;3619;53.784;10.440;2024-02-15T04:17:01;11.50;99.90
7155;DHT22;3619;53.784;10.440;2024-02-15T04:19:28;11.50;99.90
7155;DHT22;3619;53.784;10.440;2024-02-15T04:21:55;11.50;99.90
7155;DHT22;3619;53.784;10.440;2024-02-15T04:24:22;11.50;99.90
7155;DHT22;3619;53.784;10.440;2024-02-15T04:26:52;11.60;99.90
7155;DHT22;3619;53.784;10.440;2024-02-15T04:29:19;11.50;99.90
7155;DHT22;3619;53.784;10.440;2024-02-15T04:31:46;11.60;99.90
7155;DHT22;3619;53.784;10.440;2024-02-15T04:34:14;11.50;99.90
7155;DHT22;3619;53.784;10.440;2024-02-15T04:36:43;11.50;99.90
7155;DHT22;3619;53.784;10.440;2024-02-15T04:39:10;11.50;99.90
7155;DHT22;3619;53.784;10.440;2024-02-15T04:41:44;11.60;99.90
7155;DHT22;3619;53.784;10.440;2024-02-15T04:44:13;11.50;99.90
7155;DHT22;3619;53.784;10.440;2024-02-15T04:46:41;11.50;99.90
7155;DHT22;3619;53.784;10.440;2024-02-15T04:49:11;11.50;99.90
7155;DHT22;3619;53.784;10.440;2024-02-15T04:51:38;11.60;99.90
7155;DHT22;3619;53.784;10.440;2024-02-15T04:54:06;11.60;99.90
7155;DHT22;3619;53.784;10.440;2024-02-15T04:56:33;11.60;99.90
7155;DHT22;3619;53.784;10.440;2024-02-15T04:59:01;11.60;99.90
7155;DHT22;3619;53.784;10.440;2024-02-15T05:01:29;11.60;99.90
7155;DHT22;3619;53.784;10.440;2024-02-15T05:03:58;11.60;99.90
7155;DHT22;3619;53.784;10.440;2024-02-15T05:06:25;11.60;99.90
7155;DHT22;3619;53.784;10.440;2024-02-15T05:08:55;11.60;99.90
7155;DHT22;3619;53.784;10.440;2024-02-15T05:11:22;11.60;99.90
7155;DHT22;3619;53.784;10.440;2024-02-15T05:13:49;11.60;99.90
7155;DHT22;3619;53.784;10.440;2024-02-15T05:16:16;11.60;99.90
7155;DHT22;3619;53.784;10.440;2024-02-15T05:18:44;11.70;99.90
7155;DHT22;3619;53.784;10.440;2024-02-15T05:21:11;11.70;99.90
7155;DHT22;3619;53.784;10.440;2024-02-15T05:23:38;11.70;99.90
7155;DHT22;3619;53.784;10.440;2024-02-15T05:26:07;11.70;99.90
7155;DHT22;3619;53.784;10.440;2024-02-15T05:28:34;11.60;99.90
7155;DHT22;3619;53.784;10.440;2024-02-15T05:31:11;11.70;99.90
7155;DHT22;3619;53.784;10.440;2024-02-15T05:33:39;11.70;99.90
7155;DHT22;3619;53.784;10.440;2024-02-15T05:36:12;11.70;99.90
7155;DHT22;3619;53.784;10.440;2024-02-15T05:38:39;11.70;99.90
7155;DHT22;3619;53.784;10.440;2024-02-15T05:41:06;11.70;99.90
7155;DHT22;3619;53.784;10.440;2024-02-15T05:43:33;11.70;99.90
7155;DHT22;3619;53.784;10.440;2024-02-15T05:46:02;11.60;99.90
7155;DHT22;3619;53.784;10.440;2024-02-15T05:48:28;11.70;99.90
7155;DHT22;3619;53.784;10.440;2024-02-15T05:50:55;11.70;99.90
7155;DHT22;3619;53.784;10.440;2024-02-15T05:53:24;11.70;99.90
7155;DHT22;3619;53.784;10.440;2024-02-15T05:55:50;11.70;99.90
7155;DHT22;3619;53.784;10.440;2024-02-15T05:58:17;11.70;99.90
7155;DHT22;3619;53.784;10.440;2024-02-15T06:00:44;11.70;99.90
7155;DHT22;3619;53.784;10.440;2024-02-15T06:03:15;11.60;99.90
7155;DHT22;3619;53.784;10.440;2024-02-15T06:05:41;11.60;99.90
7155;DHT22;3619;53.784;10.440;2024-02-15T06:08:09;11.60;99.90
7155;DHT22;3619;53.784;10.440;2024-02-15T06:10:39;11.60;99.90
7155;DHT22;3619;53.784;10.440;2024-02-15T06:13:06;11.60;99.90
7155;DHT22;3619;53.784;10.440;2024-02-15T06:15:34;11.60;99.90
7155;DHT22;3619;53.784;10.440;2024-02-15T06:18:01;11.60;99.90
7155;DHT22;3619;53.784;10.440;2024-02-15T06:20:29;11.60;99.90
7155;DHT22;3619;53.784;10.440;2024-02-15T06:22:56;11.60;99.90
7155;DHT22;3619;53.784;10.440;2024-02-15T06:25:22;11.60;99.90
7155;DHT22;3619;53.784;10.440;2024-02-15T06:27:50;11.60;99.90
7155;DHT22;3619;53.784;10.440;2024-02-15T06:30:23;11.50;99.90
7155;DHT22;3619;53.784;10.440;2024-02-15T06:33:07;11.60;99.90
7155;DHT22;3619;53.784;10.440;2024-02-15T06:36:03;11.60;99.90
7155;DHT22;3619;53.784;10.440;2024-02-15T06:38:48;11.50;99.90
7155;DHT22;3619;53.784;10.440;2024-02-15T06:41:32;11.60;99.90
7155;DHT22;3619;53.784;10.440;2024-02-15T06:44:00;11.60;99.90
7155;DHT22;3619;53.784;10.440;2024-02-15T06:46:27;11.60;99.90
7155;DHT22;3619;53.784;10.440;2024-02-15T06:48:54;11.60;99.90
7155;DHT22;3619;53.784;10.440;2024-02-15T06:51:23;11.60;99.90
7155;DHT22;3619;53.784;10.440;2024-02-15T06:53:50;11.60;99.90
7155;DHT22;3619;53.784;10.440;2024-02-15T06:56:20;11.60;99.90
7155;DHT22;3619;53.784;10.440;2024-02-15T06:58:47;11.60;99.90
7155;DHT22;3619;53.784;10.440;2024-02-15T07:01:16;11.60;99.90
7155;DHT22;3619;53.784;10.440;2024-02-15T07:03:43;11.60;99.90
7155;DHT22;3619;53.784;10.440;2024-02-15T07:06:10;11.70;99.90
7155;DHT22;3619;53.784;10.440;2024-02-15T07:08:39;11.70;99.90
7155;DHT22;3619;53.784;10.440;2024-02-15T07:11:06;11.70;99.90
7155;DHT22;3619;53.784;10.440;2024-02-15T07:13:34;11.70;99.90
7155;DHT22;3619;53.784;10.440;2024-02-15T07:16:02;11.70;99.90
7155;DHT22;3619;53.784;10.440;2024-02-15T07:18:30;11.70;99.90
7155;DHT22;3619;53.784;10.440;2024-02-15T07:20:57;11.70;99.90
7155;DHT22;3619;53.784;10.440;2024-02-15T07:23:25;11.70;99.90
7155;DHT22;3619;53.784;10.440;2024-02-15T07:25:52;11.70;99.90
7155;DHT22;3619;53.784;10.440;2024-02-15T07:28:19;11.70;99.90
7155;DHT22;3619;53.784;10.440;2024-02-15T07:30:46;11.70;99.90
7155;DHT22;3619;53.784;10.440;2024-02-15T07:33:20;11.70;99.90
7155;DHT22;3619;53.784;10.440;2024-02-15T07:35:49;11.70;99.90
7155;DHT22;3619;53.784;10.440;2024-02-15T07:38:16;11.70;99.90
7155;DHT22;3619;53.784;10.440;2024-02-15T07:40:43;11.70;99.90
7155;DHT22;3619;53.784;10.440;2024-02-15T07:43:10;11.70;99.90
7155;DHT22;3619;53.784;10.440;2024-02-15T07:45:36;11.70;99.90
7155;DHT22;3619;53.784;10.440;2024-02-15T07:48:04;11.70;99.90
7155;DHT22;3619;53.784;10.440;2024-02-15T07:50:31;11.70;99.90
7155;DHT22;3619;53.784;10.440;2024-02-15T07:52:59;11.80;99.90
7155;DHT22;3619;53.784;10.440;2024-02-15T07:55:25;11.80;99.90
7155;DHT22;3619;53.784;10.440;2024-02-15T07:57:53;11.80;99.90
7155;DHT22;3619;53.784;10.440;2024-02-15T08:00:21;11.80;99.90
7155;DHT22;3619;53.784;10.440;2024-02-15T08:02:48;11.80;99.90
7155;DHT22;3619;53.784;10.440;2024-02-15T08:05:14;11.80;99.90
7155;DHT22;3619;53.784;10.440;2024-02-15T08:07:41;11.80;99.90
7155;DHT22;3619;53.784;10.440;2024-02-15T08:10:11;11.90;99.90
7155;DHT22;3619;53.784;10.440;2024-02-15T08:12:40;11.80;99.90
7155;DHT22;3619;53.784;10.440;2024-02-15T08:15:07;11.90;99.90
7155;DHT22;3619;53.784;10.440;2024-02-15T08:17:37;11.90;99.90
7155;DHT22;3619;53.784;10.440;2024-02-15T08:20:05;11.90;99.90
7155;DHT22;3619;53.784;10.440;2024-02-15T08:22:32;11.90;99.90
7155;DHT22;3619;53.784;10.440;2024-02-15T08:24:59;11.90;99.90
7155;DHT22;3619;53.784;10.440;2024-02-15T08:27:27;11.90;99.90
7155;DHT22;3619;53.784;10.440;2024-02-15T08:29:58;11.80;99.90
7155;DHT22;3619;53.784;10.440;2024-02-15T08:32:24;11.90;99.90
7155;DHT22;3619;53.784;10.440;2024-02-15T08:34:51;11.90;99.90
7155;DHT22;3619;53.784;10.440;2024-02-15T08:37:18;11.90;99.90
7155;DHT22;3619;53.784;10.440;2024-02-15T08:39:45;12.00;99.90
7155;DHT22;3619;53.784;10.440;2024-02-15T08:42:12;12.00;99.90
7155;DHT22;3619;53.784;10.440;2024-02-15T08:44:40;12.00;99.90
7155;DHT22;3619;53.784;10.440;2024-02-15T08:47:07;12.00;99.90
7155;DHT22;3619;53.784;10.440;2024-02-15T08:49:34;12.00;99.90
7155;DHT22;3619;53.784;10.440;2024-02-15T08:52:00;12.00;99.90
7155;DHT22;3619;53.784;10.440;2024-02-15T08:54:27;12.00;99.90
7155;DHT22;3619;53.784;10.440;2024-02-15T08:56:54;12.00;99.90
7155;DHT22;3619;53.784;10.440;2024-02-15T08:59:20;12.00;99.90
7155;DHT22;3619;53.784;10.440;2024-02-15T09:01:49;12.00;99.90
7155;DHT22;3619;53.784;10.440;2024-02-15T09:04:17;12.00;99.90
7155;DHT22;3619;53.784;10.440;2024-02-15T09:06:46;12.00;99.90
7155;DHT22;3619;53.784;10.440;2024-02-15T09:09:13;12.00;99.90
7155;DHT22;3619;53.784;10.440;2024-02-15T09:11:40;12.00;99.90
7155;DHT22;3619;53.784;10.440;2024-02-15T09:14:06;12.10;99.90
7155;DHT22;3619;53.784;10.440;2024-02-15T09:16:35;12.10;99.90
7155;DHT22;3619;53.784;10.440;2024-02-15T09:19:03;12.10;99.90
7155;DHT22;3619;53.784;10.440;2024-02-15T09:21:31;12.10;99.90
7155;DHT22;3619;53.784;10.440;2024-02-15T09:23:59;12.20;99.90
7155;DHT22;3619;53.784;10.440;2024-02-15T09:26:25;12.20;99.90
7155;DHT22;3619;53.784;10.440;2024-02-15T09:28:53;12.20;99.90
7155;DHT22;3619;53.784;10.440;2024-02-15T09:31:20;12.20;99.90
7155;DHT22;3619;53.784;10.440;2024-02-15T09:33:46;12.20;99.90
7155;DHT22;3619;53.784;10.440;2024-02-15T09:36:14;12.20;99.90
7155;DHT22;3619;53.784;10.440;2024-02-15T09:38:42;12.20;99.90
7155;DHT22;3619;53.784;10.440;2024-02-15T09:41:08;12.20;99.90
7155;DHT22;3619;53.784;10.440;2024-02-15T09:43:35;12.30;99.90
7155;DHT22;3619;53.784;10.440;2024-02-15T09:46:02;12.30;99.90
7155;DHT22;3619;53.784;10.440;2024-02-15T09:48:30;12.30;99.90
7155;DHT22;3619;53.784;10.440;2024-02-15T09:50:58;12.30;99.90
7155;DHT22;3619;53.784;10.440;2024-02-15T09:53:28;12.30;99.90
7155;DHT22;3619;53.784;10.440;2024-02-15T09:55:54;12.30;99.90
7155;DHT22;3619;53.784;10.440;2024-02-15T09:58:29;12.40;99.90
7155;DHT22;3619;53.784;10.440;2024-02-15T10:00:59;12.30;99.90
7155;DHT22;3619;53.784;10.440;2024-02-15T10:03:27;12.30;99.90
7155;DHT22;3619;53.784;10.440;2024-02-15T10:05:56;12.40;99.90
7155;DHT22;3619;53.784;10.440;2024-02-15T10:08:23;12.40;99.90
7155;DHT22;3619;53.784;10.440;2024-02-15T10:10:58;12.40;99.90
7155;DHT22;3619;53.784;10.440;2024-02-15T10:13:33;12.40;99.90
7155;DHT22;3619;53.784;10.440;2024-02-15T10:16:04;12.40;99.90
7155;DHT22;3619;53.784;10.440;2024-02-15T10:18:40;12.40;99.90
7155;DHT22;3619;53.784;10.440;2024-02-15T10:21:06;12.40;99.90
7155;DHT22;3619;53.784;10.440;2024-02-15T10:23:33;12.50;99.90
7155;DHT22;3619;53.784;10.440;2024-02-15T10:26:01;12.50;99.90
7155;DHT22;3619;53.784;10.440;2024-02-15T10:28:46;12.60;99.90
7155;DHT22;3619;53.784;10.440;2024-02-15T10:31:13;12.60;99.90
7155;DHT22;3619;53.784;10.440;2024-02-15T10:33:40;12.60;99.90
7155;DHT22;3619;53.784;10.440;2024-02-15T10:36:08;12.70;99.90
7155;DHT22;3619;53.784;10.440;2024-02-15T10:38:36;12.80;99.90
7155;DHT22;3619;53.784;10.440;2024-02-15T10:41:05;12.70;99.90
7155;DHT22;3619;53.784;10.440;2024-02-15T10:43:32;12.70;99.90
7155;DHT22;3619;53.784;10.440;2024-02-15T10:46:03;12.70;99.90
7155;DHT22;3619;53.784;10.440;2024-02-15T10:48:33;12.70;99.90
7155;DHT22;3619;53.784;10.440;2024-02-15T10:51:00;12.80;99.90
7155;DHT22;3619;53.784;10.440;2024-02-15T10:53:30;12.70;99.90
7155;DHT22;3619;53.784;10.440;2024-02-15T10:56:00;12.70;99.90
7155;DHT22;3619;53.784;10.440;2024-02-15T10:58:33;12.70;99.90
7155;DHT22;3619;53.784;10.440;2024-02-15T11:01:06;12.70;99.90
7155;DHT22;3619;53.784;10.440;2024-02-15T11:03:35;12.80;99.90
7155;DHT22;3619;53.784;10.440;2024-02-15T11:06:02;12.80;99.90
7155;DHT22;3619;53.784;10.440;2024-02-15T11:08:32;12.80;99.90
7155;DHT22;3619;53.784;10.440;2024-02-15T11:10:58;12.90;99.90
7155;DHT22;3619;53.784;10.440;2024-02-15T11:13:27;12.80;99.90
7155;DHT22;3619;53.784;10.440;2024-02-15T11:15:56;12.80;99.90
7155;DHT22;3619;53.784;10.440;2024-02-15T11:18:43;12.90;99.90
7155;DHT22;3619;53.784;10.440;2024-02-15T11:21:11;12.80;99.90
7155;DHT22;3619;53.784;10.440;2024-02-15T11:23:38;12.80;99.90
7155;DHT22;3619;53.784;10.440;2024-02-15T11:26:08;12.80;99.90
7155;DHT22;3619;53.784;10.440;2024-02-15T11:28:38;12.90;99.90
7155;DHT22;3619;53.784;10.440;2024-02-15T11:31:07;12.90;99.90
7155;DHT22;3619;53.784;10.440;2024-02-15T11:33:36;12.90;99.90
7155;DHT22;3619;53.784;10.440;2024-02-15T11:36:04;12.90;99.90
7155;DHT22;3619;53.784;10.440;2024-02-15T11:38:31;12.90;99.90
7155;DHT22;3619;53.784;10.440;2024-02-15T11:41:00;12.90;99.90
7155;DHT22;3619;53.784;10.440;2024-02-15T11:43:48;12.90;99.90
7155;DHT22;3619;53.784;10.440;2024-02-15T11:46:22;12.90;99.90
7155;DHT22;3619;53.784;10.440;2024-02-15T11:48:51;13.00;99.90
7155;DHT22;3619;53.784;10.440;2024-02-15T11:51:31;13.00;99.90
7155;DHT22;3619;53.784;10.440;2024-02-15T11:54:01;13.00;99.90
7155;DHT22;3619;53.784;10.440;2024-02-15T11:56:31;13.00;99.90
7155;DHT22;3619;53.784;10.440;2024-02-15T11:59:02;13.00;99.90
7155;DHT22;3619;53.784;10.440;2024-02-15T12:01:33;13.00;99.90
7155;DHT22;3619;53.784;10.440;2024-02-15T12:04:18;13.00;99.90
7155;DHT22;3619;53.784;10.440;2024-02-15T12:07:02;13.00;99.90
7155;DHT22;3619;53.784;10.440;2024-02-15T12:09:58;13.10;99.90
7155;DHT22;3619;53.784;10.440;2024-02-15T12:12:50;13.10;99.90
7155;DHT22;3619;53.784;10.440;2024-02-15T12:15:34;13.00;99.90
7155;DHT22;3619;53.784;10.440;2024-02-15T12:18:21;13.00;99.90
7155;DHT22;3619;53.784;10.440;2024-02-15T12:21:08;13.00;99.90
7155;DHT22;3619;53.784;10.440;2024-02-15T12:23:37;13.00;99.90
7155;DHT22;3619;53.784;10.440;2024-02-15T12:26:04;13.00;99.90
7155;DHT22;3619;53.784;10.440;2024-02-15T12:28:31;13.00;99.90
7155;DHT22;3619;53.784;10.440;2024-02-15T12:30:58;13.00;99.90
7155;DHT22;3619;53.784;10.440;2024-02-15T12:33:26;13.00;99.90
7155;DHT22;3619;53.784;10.440;2024-02-15T12:36:03;13.00;99.90
7155;DHT22;3619;53.784;10.440;2024-02-15T12:38:30;13.00;99.90
7155;DHT22;3619;53.784;10.440;2024-02-15T12:40:59;13.00;99.90
7155;DHT22;3619;53.784;10.440;2024-02-15T12:43:27;13.00;99.90
7155;DHT22;3619;53.784;10.440;2024-02-15T12:45:54;13.00;99.90
7155;DHT22;3619;53.784;10.440;2024-02-15T12:48:22;13.00;99.90
7155;DHT22;3619;53.784;10.440;2024-02-15T12:50:50;13.10;99.90
7155;DHT22;3619;53.784;10.440;2024-02-15T12:53:20;13.00;99.90
7155;DHT22;3619;53.784;10.440;2024-02-15T12:55:52;13.10;99.90
7155;DHT22;3619;53.784;10.440;2024-02-15T12:58:20;13.10;99.90
7155;DHT22;3619;53.784;10.440;2024-02-15T13:00:49;13.10;99.90
7155;DHT22;3619;53.784;10.440;2024-02-15T13:03:16;13.10;99.90
7155;DHT22;3619;53.784;10.440;2024-02-15T13:05:43;13.00;99.90
7155;DHT22;3619;53.784;10.440;2024-02-15T13:08:13;13.10;99.90
7155;DHT22;3619;53.784;10.440;2024-02-15T13:10:43;13.10;99.90
7155;DHT22;3619;53.784;10.440;2024-02-15T13:13:09;13.00;99.90
7155;DHT22;3619;53.784;10.440;2024-02-15T13:15:37;13.00;99.90
7155;DHT22;3619;53.784;10.440;2024-02-15T13:18:05;12.90;99.90
7155;DHT22;3619;53.784;10.440;2024-02-15T13:20:35;12.90;99.90
7155;DHT22;3619;53.784;10.440;2024-02-15T13:23:03;12.90;99.90
7155;DHT22;3619;53.784;10.440;2024-02-15T13:25:35;12.90;99.90
7155;DHT22;3619;53.784;10.440;2024-02-15T13:28:03;12.90;99.90
7155;DHT22;3619;53.784;10.440;2024-02-15T13:30:30;12.90;99.90
7155;DHT22;3619;53.784;10.440;2024-02-15T13:33:01;12.90;99.90
7155;DHT22;3619;53.784;10.440;2024-02-15T13:35:28;12.90;99.90
7155;DHT22;3619;53.784;10.440;2024-02-15T13:37:55;12.90;99.90
7155;DHT22;3619;53.784;10.440;2024-02-15T13:40:27;12.90;99.90
7155;DHT22;3619;53.784;10.440;2024-02-15T13:42:58;12.90;99.90
7155;DHT22;3619;53.784;10.440;2024-02-15T13:45:27;12.90;99.90
7155;DHT22;3619;53.784;10.440;2024-02-15T13:47:57;12.80;99.90
7155;DHT22;3619;53.784;10.440;2024-02-15T13:50:28;12.90;99.90
7155;DHT22;3619;53.784;10.440;2024-02-15T13:52:54;12.90;99.90
7155;DHT22;3619;53.784;10.440;2024-02-15T13:55:21;12.80;99.90
7155;DHT22;3619;53.784;10.440;2024-02-15T13:57:48;12.80;99.90
7155;DHT22;3619;53.784;10.440;2024-02-15T14:00:16;12.80;99.90
7155;DHT22;3619;53.784;10.440;2024-02-15T14:02:48;12.80;99.90
7155;DHT22;3619;53.784;10.440;2024-02-15T14:05:15;12.80;99.90
7155;DHT22;3619;53.784;10.440;2024-02-15T14:07:46;12.80;99.90
7155;DHT22;3619;53.784;10.440;2024-02-15T14:10:13;12.80;99.90
7155;DHT22;3619;53.784;10.440;2024-02-15T14:12:39;12.80;99.90
7155;DHT22;3619;53.784;10.440;2024-02-15T14:15:06;12.80;99.90
7155;DHT22;3619;53.784;10.440;2024-02-15T14:17:35;12.80;99.90
7155;DHT22;3619;53.784;10.440;2024-02-15T14:20:01;12.80;99.90
7155;DHT22;3619;53.784;10.440;2024-02-15T14:22:33;12.80;99.90
7155;DHT22;3619;53.784;10.440;2024-02-15T14:25:00;12.80;99.90
7155;DHT22;3619;53.784;10.440;2024-02-15T14:27:27;12.80;99.90
7155;DHT22;3619;53.784;10.440;2024-02-15T14:29:54;12.80;99.90
7155;DHT22;3619;53.784;10.440;2024-02-15T14:32:39;12.80;99.90
7155;DHT22;3619;53.784;10.440;2024-02-15T14:35:25;12.80;99.90
7155;DHT22;3619;53.784;10.440;2024-02-15T14:37:52;12.70;99.90
7155;DHT22;3619;53.784;10.440;2024-02-15T14:40:18;12.70;99.90
7155;DHT22;3619;53.784;10.440;2024-02-15T14:42:46;12.70;99.90
7155;DHT22;3619;53.784;10.440;2024-02-15T14:45:13;12.70;99.90
7155;DHT22;3619;53.784;10.440;2024-02-15T14:47:41;12.70;99.90
7155;DHT22;3619;53.784;10.440;2024-02-15T14:50:08;12.70;99.90
7155;DHT22;3619;53.784;10.440;2024-02-15T14:52:38;12.70;99.90
7155;DHT22;3619;53.784;10.440;2024-02-15T14:55:05;12.70;99.90
7155;DHT22;3619;53.784;10.440;2024-02-15T14:57:33;12.60;99.90
7155;DHT22;3619;53.784;10.440;2024-02-15T15:00:01;12.60;99.90
7155;DHT22;3619;53.784;10.440;2024-02-15T15:02:29;12.70;99.90
7155;DHT22;3619;53.784;10.440;2024-02-15T15:04:57;12.60;99.90
7155;DHT22;3619;53.784;10.440;2024-02-15T15:07:45;12.60;99.90
7155;DHT22;3619;53.784;10.440;2024-02-15T15:10:40;12.60;99.90
7155;DHT22;3619;53.784;10.440;2024-02-15T15:13:25;12.60;99.90
7155;DHT22;3619;53.784;10.440;2024-02-15T15:15:51;12.60;99.90
7155;DHT22;3619;53.784;10.440;2024-02-15T15:18:19;12.50;99.90
7155;DHT22;3619;53.784;10.440;2024-02-15T15:20:49;12.60;99.90
7155;DHT22;3619;53.784;10.440;2024-02-15T15:23:20;12.60;99.90
7155;DHT22;3619;53.784;10.440;2024-02-15T15:25:47;12.50;99.90
7155;DHT22;3619;53.784;10.440;2024-02-15T15:28:15;12.60;99.90
7155;DHT22;3619;53.784;10.440;2024-02-15T15:30:41;12.50;99.90
7155;DHT22;3619;53.784;10.440;2024-02-15T15:33:13;12.50;99.90
7155;DHT22;3619;53.784;10.440;2024-02-15T15:35:40;12.60;99.90
7155;DHT22;3619;53.784;10.440;2024-02-15T15:38:08;12.50;99.90
7155;DHT22;3619;53.784;10.440;2024-02-15T15:40:35;12.50;99.90
7155;DHT22;3619;53.784;10.440;2024-02-15T15:43:01;12.50;99.90
7155;DHT22;3619;53.784;10.440;2024-02-15T15:45:30;12.50;99.90
7155;DHT22;3619;53.784;10.440;2024-02-15T15:47:59;12.50;99.90
7155;DHT22;3619;53.784;10.440;2024-02-15T15:50:27;12.50;99.90
7155;DHT22;3619;53.784;10.440;2024-02-15T15:52:54;12.50;99.90
7155;DHT22;3619;53.784;10.440;2024-02-15T15:55:25;12.50;99.90